createdAt,value
2019-04-20T00:01:26.296Z,58.38
2019-04-20T00:03:49.046Z,54.82
2019-04-20T00:06:15.287Z,56.18
2019-04-20T00:08:42.707Z,55.50
2019-04-20T00:11:15.396Z,56.70
2019-04-20T00:13:45.388Z,57.14
2019-04-20T00:16:02.026Z,58.24
2019-04-20T00:18:34.721Z,55.08
2019-04-20T00:21:03.862Z,56.95
2019-04-20T00:23:37.947Z,58.17
2019-04-20T00:26:43.912Z,58.02
2019-04-20T00:29:07.301Z,57.00
2019-04-20T00:31:29.712Z,55.38
2019-04-20T00:33:57.503Z,57.30
2019-04-20T00:36:11.758Z,56.71
2019-04-20T00:38:42.611Z,54.72
2019-04-20T00:41:07.528Z,53.12
2019-04-20T00:43:34.313Z,52.54
2019-04-20T00:46:04.885Z,52.43
2019-04-20T00:48:35.079Z,53.21
2019-04-20T00:51:06.937Z,54.66
2019-04-20T00:53:26.204Z,53.56
2019-04-20T00:55:44.478Z,51.97
2019-04-20T00:58:20.182Z,54.64
2019-04-20T01:01:04.120Z,53.17
2019-04-20T01:03:23.291Z,52.82
2019-04-20T01:06:02.269Z,53.27
2019-04-20T01:08:12.848Z,52.76
2019-04-20T01:10:44.771Z,50.54
2019-04-20T01:13:13.366Z,52.11
2019-04-20T01:15:46.269Z,52.92
2019-04-20T01:18:00.798Z,52.88
2019-04-20T01:20:27.971Z,54.10
2019-04-20T01:23:01.887Z,55.04
2019-04-20T01:25:27.264Z,55.89
2019-04-20T01:28:19.281Z,56.32
2019-04-20T01:30:25.286Z,58.84
2019-04-20T01:32:55.372Z,56.20
2019-04-20T01:35:26.723Z,57.77
2019-04-20T01:37:54.681Z,56.93
2019-04-20T01:40:04.451Z,57.16
2019-04-20T01:42:29.929Z,58.63
2019-04-20T01:44:57.077Z,58.70
2019-04-20T01:47:23.888Z,58.72
2019-04-20T01:49:57.516Z,57.03
2019-04-20T01:52:25.563Z,56.77
2019-04-20T01:55:05.935Z,57.22
2019-04-20T01:57:24.790Z,54.85
2019-04-20T01:59:54.305Z,55.25
2019-04-20T02:02:28.234Z,56.59
2019-04-20T02:05:05.610Z,56.34
2019-04-20T02:07:28.507Z,56.98
2019-04-20T02:09:56.130Z,57.20
2019-04-20T02:12:22.347Z,56.69
2019-04-20T02:14:49.656Z,56.13
2019-04-20T02:17:20.000Z,56.33
2019-04-20T02:19:58.518Z,57.78
2019-04-20T02:22:17.106Z,57.88
2019-04-20T02:24:29.953Z,59.21
2019-04-20T02:26:56.638Z,59.66
2019-04-20T02:29:47.458Z,61.56
2019-04-20T02:32:31.797Z,61.89
2019-04-20T02:34:57.697Z,62.14
2019-04-20T02:37:56.635Z,62.51
2019-04-20T02:40:19.366Z,61.12
2019-04-20T02:42:47.678Z,62.28
2019-04-20T02:45:20.439Z,62.26
2019-04-20T02:47:41.007Z,62.24
2019-04-20T02:52:32.725Z,62.03
2019-04-20T02:54:53.669Z,63.42
2019-04-20T02:57:20.513Z,65.00
2019-04-20T03:00:03.306Z,63.12
2019-04-20T03:01:59.397Z,64.94
2019-04-20T03:04:20.281Z,64.37
2019-04-20T03:06:53.515Z,64.93
2019-04-20T03:09:26.359Z,64.15
2019-04-20T03:11:54.038Z,64.08
2019-04-20T03:14:13.874Z,65.67
2019-04-20T03:16:38.732Z,64.93
2019-04-20T03:19:04.122Z,65.32
2019-04-20T03:21:37.989Z,65.81
2019-04-20T03:24:11.727Z,66.17
2019-04-20T03:26:47.322Z,66.56
2019-04-20T03:29:15.984Z,65.50
2019-04-20T03:32:28.498Z,65.15
2019-04-20T03:34:48.472Z,66.36
2019-04-20T03:36:55.045Z,66.05
2019-04-20T03:39:13.617Z,66.60
2019-04-20T03:41:28.246Z,65.22
2019-04-20T03:43:47.753Z,65.03
2019-04-20T03:46:18.838Z,65.73
2019-04-20T03:49:02.792Z,66.42
2019-04-20T03:51:35.935Z,66.33
2019-04-20T03:54:02.662Z,66.22
2019-04-20T03:56:41.918Z,65.16
2019-04-20T03:59:08.672Z,64.80
2019-04-20T04:02:12.419Z,64.70
2019-04-20T04:04:25.173Z,65.01
2019-04-20T04:06:34.014Z,65.53
2019-04-20T04:09:06.416Z,65.67
2019-04-20T04:11:35.445Z,65.28
2019-04-20T04:13:46.061Z,66.35
2019-04-20T04:16:16.422Z,66.94
2019-04-20T04:18:44.657Z,67.59
2019-04-20T04:21:12.877Z,68.24
2019-04-20T04:23:49.015Z,69.49
2019-04-20T04:26:18.721Z,69.70
2019-04-20T04:28:41.013Z,68.85
2019-04-20T04:31:13.418Z,69.83
2019-04-20T04:33:54.627Z,68.90
2019-04-20T04:36:01.089Z,70.77
2019-04-20T04:38:37.419Z,69.89
2019-04-20T04:41:09.616Z,70.18
2019-04-20T04:43:25.385Z,69.41
2019-04-20T04:45:35.244Z,68.25
2019-04-20T04:48:01.929Z,68.85
2019-04-20T04:50:31.118Z,69.06
2019-04-20T04:53:02.782Z,69.03
2019-04-20T04:55:34.421Z,69.24
2019-04-20T04:57:47.533Z,68.35
2019-04-20T05:00:17.808Z,68.20
2019-04-20T05:02:46.576Z,68.33
2019-04-20T05:05:35.832Z,66.97
2019-04-20T05:07:52.130Z,67.30
2019-04-20T05:10:07.698Z,66.62
2019-04-20T05:12:35.938Z,66.35
2019-04-20T05:15:07.978Z,65.56
2019-04-20T05:17:51.146Z,65.56
2019-04-20T05:20:15.114Z,65.25
2019-04-20T05:22:46.662Z,63.71
2019-04-20T05:25:31.064Z,62.42
2019-04-20T05:28:03.051Z,62.27
2019-04-20T05:30:07.698Z,60.89
2019-04-20T05:32:44.951Z,61.45
2019-04-20T05:35:24.099Z,60.76
2019-04-20T05:37:48.739Z,61.20
2019-04-20T05:40:20.711Z,60.71
2019-04-20T05:42:59.506Z,60.53
2019-04-20T05:45:20.643Z,60.93
2019-04-20T05:47:54.875Z,59.77
2019-04-20T05:50:16.625Z,59.65
2019-04-20T05:55:14.703Z,60.02
2019-04-20T05:57:42.600Z,60.55
2019-04-20T06:00:12.659Z,61.55
2019-04-20T06:02:34.818Z,59.75
2019-04-20T06:05:05.663Z,58.58
2019-04-20T06:07:29.637Z,59.40
2019-04-20T06:09:59.891Z,61.05
2019-04-20T06:12:20.003Z,60.77
2019-04-20T06:15:04.461Z,59.55
2019-04-20T06:17:59.443Z,59.82
2019-04-20T06:20:31.068Z,60.08
2019-04-20T06:22:57.382Z,58.83
2019-04-20T06:25:39.564Z,57.82
2019-04-20T06:27:52.995Z,58.88
2019-04-20T06:30:13.795Z,59.63
2019-04-20T06:32:59.447Z,59.75
2019-04-20T06:35:39.118Z,57.51
2019-04-20T06:37:54.932Z,56.52
2019-04-20T06:40:31.923Z,58.91
2019-04-20T06:42:39.854Z,56.93
2019-04-20T06:45:14.757Z,56.69
2019-04-20T06:47:42.799Z,55.05
2019-04-20T06:50:01.645Z,55.88
2019-04-20T06:52:27.682Z,53.41
2019-04-20T06:55:03.375Z,55.35
2019-04-20T06:57:34.603Z,54.58
2019-04-20T07:00:01.257Z,54.27
2019-04-20T07:02:29.941Z,54.11
2019-04-20T07:04:59.690Z,54.62
2019-04-20T07:10:04.841Z,51.75
2019-04-20T07:12:13.035Z,52.66
2019-04-20T07:14:33.100Z,52.61
2019-04-20T07:17:24.443Z,51.80
2019-04-20T07:19:48.688Z,51.50
2019-04-20T07:22:25.296Z,50.49
2019-04-20T07:24:55.148Z,50.72
2019-04-20T07:27:13.573Z,49.54
2019-04-20T07:29:43.273Z,50.32
2019-04-20T07:31:57.621Z,49.09
2019-04-20T07:34:32.424Z,48.10
2019-04-20T07:37:17.940Z,48.05
2019-04-20T07:39:27.913Z,48.72
2019-04-20T07:41:58.641Z,47.10
2019-04-20T07:44:29.897Z,46.57
2019-04-20T07:47:06.997Z,46.66
2019-04-20T07:49:12.718Z,45.91
2019-04-20T07:51:26.641Z,46.43
2019-04-20T07:54:19.405Z,48.34
2019-04-20T07:56:39.365Z,47.12
2019-04-20T07:58:49.228Z,47.58
2019-04-20T08:01:38.906Z,45.80
2019-04-20T08:04:05.600Z,44.85
2019-04-20T08:06:22.051Z,46.76
2019-04-20T08:08:57.153Z,45.17
2019-04-20T08:11:22.852Z,44.71
2019-04-20T08:13:56.947Z,44.93
2019-04-20T08:16:32.894Z,45.44
2019-04-20T08:18:51.312Z,45.20
2019-04-20T08:21:21.103Z,43.87
2019-04-20T08:23:47.335Z,42.96
2019-04-20T08:26:00.743Z,42.86
2019-04-20T08:28:31.486Z,44.13
2019-04-20T08:31:14.195Z,43.10
2019-04-20T08:33:52.744Z,43.43
2019-04-20T08:36:10.722Z,42.00
2019-04-20T08:41:02.836Z,40.80
2019-04-20T08:43:45.132Z,43.89
2019-04-20T08:45:58.965Z,42.15
2019-04-20T08:48:30.963Z,42.01
2019-04-20T08:50:50.708Z,42.07
2019-04-20T08:53:27.893Z,42.32
2019-04-20T08:55:43.801Z,41.44
2019-04-20T08:57:51.748Z,40.08
2019-04-20T09:00:27.476Z,41.89
2019-04-20T09:02:52.147Z,39.50
2019-04-20T09:05:29.448Z,40.87
2019-04-20T09:07:49.020Z,41.10
2019-04-20T09:10:28.303Z,42.46
2019-04-20T09:12:45.040Z,42.36
2019-04-20T09:14:59.493Z,40.20
2019-04-20T09:17:35.601Z,40.21
2019-04-20T09:20:06.269Z,41.60
2019-04-20T09:22:40.630Z,39.15
2019-04-20T09:25:27.972Z,39.35
2019-04-20T09:27:32.384Z,41.01
2019-04-20T09:30:04.298Z,39.70
2019-04-20T09:32:36.111Z,38.94
2019-04-20T09:35:07.796Z,40.21
2019-04-20T09:37:38.443Z,39.72
2019-04-20T09:40:16.314Z,38.46
2019-04-20T09:42:26.177Z,38.04
2019-04-20T09:44:55.966Z,38.98
2019-04-20T09:47:28.323Z,38.31
2019-04-20T09:50:00.163Z,36.73
2019-04-20T09:52:27.859Z,35.67
2019-04-20T09:54:57.947Z,36.83
2019-04-20T09:57:25.325Z,36.51
2019-04-20T09:59:55.338Z,36.24
2019-04-20T10:02:08.728Z,35.90
2019-04-20T10:04:26.940Z,37.75
2019-04-20T10:06:55.122Z,36.74
2019-04-20T10:09:27.917Z,36.16
2019-04-20T10:11:48.767Z,35.64
2019-04-20T10:14:14.456Z,32.89
2019-04-20T10:16:41.940Z,34.42
2019-04-20T10:19:10.491Z,33.21
2019-04-20T10:21:34.287Z,36.17
2019-04-20T10:24:01.008Z,33.58
2019-04-20T10:26:27.758Z,32.45
2019-04-20T10:28:55.251Z,32.99
2019-04-20T10:31:22.325Z,33.73
2019-04-20T10:33:49.281Z,32.24
2019-04-20T10:36:25.638Z,32.56
2019-04-20T10:38:51.170Z,31.52
2019-04-20T10:41:29.662Z,32.18
2019-04-20T10:43:44.870Z,32.07
2019-04-20T10:46:11.434Z,31.27
2019-04-20T10:48:45.294Z,33.35
2019-04-20T10:51:05.291Z,30.00
2019-04-20T10:53:32.222Z,32.04
2019-04-20T10:55:58.459Z,29.82
2019-04-20T10:58:25.325Z,26.96
2019-04-20T11:00:51.959Z,28.17
2019-04-20T11:03:19.737Z,26.41
2019-04-20T11:05:46.754Z,26.76
2019-04-20T11:08:12.775Z,27.97
2019-04-20T11:10:51.057Z,27.10
2019-04-20T11:13:05.841Z,26.60
2019-04-20T11:15:32.574Z,27.08
2019-04-20T11:17:59.604Z,25.73
2019-04-20T11:20:26.034Z,28.12
2019-04-20T11:22:52.781Z,24.99
2019-04-20T11:25:19.937Z,26.94
2019-04-20T11:27:46.261Z,27.05
2019-04-20T11:30:14.116Z,26.75
2019-04-20T11:32:40.226Z,26.43
2019-04-20T11:35:14.134Z,25.49
2019-04-20T11:37:35.115Z,25.73
2019-04-20T11:40:01.370Z,26.13
2019-04-20T11:42:27.734Z,26.08
2019-04-20T11:44:54.932Z,25.68
2019-04-20T11:47:21.712Z,23.95
2019-04-20T11:49:47.465Z,23.87
2019-04-20T11:52:16.885Z,24.20
2019-04-20T11:54:42.174Z,24.08
2019-04-20T11:57:08.960Z,23.50
2019-04-20T11:59:34.981Z,24.34
2019-04-20T12:02:09.154Z,24.22
2019-04-20T12:04:48.868Z,25.66
2019-04-20T12:07:06.733Z,24.19
2019-04-20T12:09:33.450Z,26.10
2019-04-20T12:12:10.449Z,25.59
2019-04-20T12:14:25.933Z,23.95
2019-04-20T12:16:53.360Z,23.46
2019-04-20T12:19:20.655Z,24.76
2019-04-20T12:21:47.415Z,23.78
2019-04-20T12:24:14.220Z,24.60
2019-04-20T12:26:40.601Z,24.02
2019-04-20T12:29:07.822Z,24.37
2019-04-20T12:31:33.507Z,24.99
2019-04-20T12:34:00.197Z,24.70
2019-04-20T12:36:26.578Z,25.31
2019-04-20T12:38:53.325Z,24.44
2019-04-20T12:41:32.023Z,25.04
2019-04-20T12:43:47.653Z,25.89
2019-04-20T12:46:16.343Z,24.52
2019-04-20T12:48:41.792Z,26.27
2019-04-20T12:51:07.855Z,25.64
2019-04-20T12:53:34.927Z,25.50
2019-04-20T12:56:00.578Z,24.90
2019-04-20T12:58:28.434Z,26.28
2019-04-20T13:00:54.347Z,23.86
2019-04-20T13:03:21.445Z,24.42
2019-04-20T13:05:47.910Z,25.38
2019-04-20T13:08:23.159Z,24.92
2019-04-20T13:10:42.310Z,23.70
2019-04-20T13:13:14.427Z,24.60
2019-04-20T13:16:00.527Z,23.79
2019-04-20T13:18:47.638Z,25.31
2019-04-20T13:21:13.482Z,22.55
2019-04-20T13:23:40.644Z,23.88
2019-04-20T13:26:08.741Z,23.93
2019-04-20T13:28:34.704Z,23.76
2019-04-20T13:31:01.677Z,23.02
2019-04-20T13:33:27.323Z,22.20
2019-04-20T13:35:54.379Z,22.42
2019-04-20T13:38:20.658Z,23.11
2019-04-20T13:40:48.135Z,23.42
2019-04-20T13:43:14.239Z,20.69
2019-04-20T13:45:40.976Z,21.46
2019-04-20T13:48:08.919Z,20.43
2019-04-20T13:50:35.923Z,21.41
2019-04-20T13:53:01.247Z,20.97
2019-04-20T13:55:28.904Z,19.69
2019-04-20T13:58:00.074Z,22.08
2019-04-20T14:00:40.910Z,21.22
2019-04-20T14:03:08.900Z,20.10
2019-04-20T14:05:35.051Z,20.97
2019-04-20T14:08:01.136Z,22.25
2019-04-20T14:10:29.182Z,20.54
2019-04-20T14:13:01.706Z,20.03
2019-04-20T14:15:22.830Z,22.47
2019-04-20T14:17:48.971Z,21.90
2019-04-20T14:20:17.525Z,22.11
2019-04-20T14:22:42.933Z,21.85
2019-04-20T14:25:09.073Z,22.89
2019-04-20T14:27:35.226Z,21.55
2019-04-20T14:30:03.363Z,21.00
2019-04-20T14:32:29.132Z,20.68
2019-04-20T14:34:56.817Z,20.21
2019-04-20T14:37:22.677Z,20.38
2019-04-20T14:39:50.300Z,21.09
2019-04-20T14:42:26.915Z,20.80
2019-04-20T14:44:43.658Z,21.34
2019-04-20T14:47:09.770Z,22.14
2019-04-20T14:49:36.816Z,22.25
2019-04-20T14:52:03.195Z,20.76
2019-04-20T14:54:29.638Z,22.47
2019-04-20T14:56:56.194Z,22.52
2019-04-20T14:59:35.873Z,21.63
2019-04-20T15:02:06.597Z,20.54
2019-04-20T15:04:33.278Z,20.65
2019-04-20T15:07:00.278Z,21.29
2019-04-20T15:09:26.797Z,21.23
2019-04-20T15:11:54.761Z,21.12
2019-04-20T15:14:20.723Z,21.81
2019-04-20T15:16:47.022Z,22.14
2019-04-20T15:19:19.443Z,21.83
2019-04-20T15:21:47.552Z,21.54
2019-04-20T15:24:15.472Z,23.10
2019-04-20T15:26:42.495Z,22.90
2019-04-20T15:29:08.418Z,22.70
2019-04-20T15:31:34.530Z,21.41
2019-04-20T15:34:01.313Z,21.67
2019-04-20T15:36:28.479Z,21.09
2019-04-20T15:38:54.734Z,21.41
2019-04-20T15:41:21.503Z,21.64
2019-04-20T15:43:49.117Z,22.38
2019-04-20T15:46:15.371Z,21.90
2019-04-20T15:48:41.843Z,24.20
2019-04-20T15:51:09.842Z,23.52
2019-04-20T15:53:35.524Z,24.62
2019-04-20T15:56:04.979Z,23.42
2019-04-20T15:58:30.163Z,24.74
2019-04-20T16:00:56.523Z,24.37
2019-04-20T16:03:31.312Z,24.57
2019-04-20T16:06:01.204Z,24.70
2019-04-20T16:08:30.263Z,24.05
2019-04-20T16:10:57.233Z,23.73
2019-04-20T16:13:31.360Z,23.23
2019-04-20T16:15:49.878Z,23.81
2019-04-20T16:18:16.805Z,25.12
2019-04-20T16:20:51.659Z,24.79
2019-04-20T16:23:10.329Z,23.13
2019-04-20T16:25:43.663Z,25.54
2019-04-20T16:28:10.095Z,24.26
2019-04-20T16:30:38.022Z,25.04
2019-04-20T16:33:03.637Z,23.30
2019-04-20T16:35:30.478Z,24.22
2019-04-20T16:37:58.205Z,24.06
2019-04-20T16:40:25.333Z,24.83
2019-04-20T16:42:52.136Z,24.45
2019-04-20T16:45:19.141Z,25.47
2019-04-20T16:47:46.174Z,25.92
2019-04-20T16:50:12.997Z,25.96
2019-04-20T16:52:39.015Z,27.30
2019-04-20T16:55:06.042Z,26.79
2019-04-20T16:57:31.969Z,26.89
2019-04-20T16:59:59.944Z,26.09
2019-04-20T17:02:26.470Z,27.37
2019-04-20T17:04:54.813Z,27.68
2019-04-20T17:07:22.850Z,27.60
2019-04-20T17:09:49.758Z,26.49
2019-04-20T17:12:17.686Z,27.67
2019-04-20T17:14:43.463Z,27.97
2019-04-20T17:17:11.448Z,29.21
2019-04-20T17:19:37.650Z,28.30
2019-04-20T17:22:03.664Z,30.23
2019-04-20T17:24:31.348Z,29.61
2019-04-20T17:27:05.337Z,29.34
2019-04-20T17:29:33.713Z,29.02
2019-04-20T17:32:08.430Z,29.04
2019-04-20T17:34:46.967Z,30.12
2019-04-20T17:37:02.334Z,30.79
2019-04-20T17:39:41.226Z,29.76
2019-04-20T17:42:14.685Z,30.79
2019-04-20T17:44:35.920Z,30.50
2019-04-20T17:47:00.587Z,31.48
2019-04-20T17:49:30.609Z,30.47
2019-04-20T17:52:05.109Z,30.85
2019-04-20T17:54:25.158Z,30.87
2019-04-20T17:56:52.156Z,31.35
2019-04-20T17:59:17.741Z,31.17
2019-04-20T18:02:20.440Z,31.37
2019-04-20T18:05:09.793Z,31.83
2019-04-20T18:07:35.498Z,33.13
2019-04-20T18:09:58.432Z,32.85
2019-04-20T18:12:09.787Z,31.81
2019-04-20T18:14:48.038Z,32.55
2019-04-20T18:17:17.811Z,32.16
2019-04-20T18:19:40.834Z,33.65
2019-04-20T18:22:09.872Z,32.03
2019-04-20T18:25:08.929Z,32.03
2019-04-20T18:27:23.941Z,31.67
2019-04-20T18:29:46.168Z,32.64
2019-04-20T18:32:05.180Z,34.40
2019-04-20T18:34:40.412Z,33.18
2019-04-20T18:37:11.957Z,33.71
2019-04-20T18:39:41.432Z,34.24
2019-04-20T18:42:09.986Z,33.67
2019-04-20T18:44:45.598Z,32.66
2019-04-20T18:47:18.211Z,32.84
2019-04-20T18:49:36.014Z,33.12
2019-04-20T18:51:48.096Z,33.28
2019-04-20T18:54:20.863Z,33.18
2019-04-20T18:56:45.790Z,31.91
2019-04-20T18:59:09.193Z,32.70
2019-04-20T19:01:38.403Z,33.36
2019-04-20T19:04:01.791Z,31.98
2019-04-20T19:06:29.788Z,33.53
2019-04-20T19:08:56.017Z,33.30
2019-04-20T19:11:24.990Z,34.06
2019-04-20T19:13:59.281Z,34.13
2019-04-20T19:16:37.603Z,34.16
2019-04-20T19:19:28.571Z,34.09
2019-04-20T19:21:47.610Z,33.67
2019-04-20T19:24:16.952Z,34.18
2019-04-20T19:26:46.685Z,34.23
2019-04-20T19:29:15.756Z,33.49
2019-04-20T19:31:44.863Z,34.78
2019-04-20T19:34:22.735Z,34.26
2019-04-20T19:36:34.841Z,35.25
2019-04-20T19:39:12.116Z,35.05
2019-04-20T19:41:32.123Z,34.51
2019-04-20T19:44:02.524Z,34.05
2019-04-20T19:46:44.719Z,34.95
2019-04-20T19:48:52.682Z,35.02
2019-04-20T19:51:28.629Z,35.36
2019-04-20T19:53:58.568Z,34.71
2019-04-20T19:56:16.944Z,35.90
2019-04-20T19:58:39.885Z,34.25
2019-04-20T20:00:57.721Z,34.14
2019-04-20T20:03:21.969Z,34.44
2019-04-20T20:05:50.913Z,35.28
2019-04-20T20:08:20.907Z,34.74
2019-04-20T20:10:44.151Z,34.56
2019-04-20T20:13:09.932Z,34.72
2019-04-20T20:15:38.035Z,33.87
2019-04-20T20:18:21.531Z,33.99
2019-04-20T20:20:42.923Z,35.00
2019-04-20T20:22:58.208Z,34.87
2019-04-20T20:25:29.112Z,34.24
2019-04-20T20:27:55.175Z,35.98
2019-04-20T20:30:25.454Z,36.28
2019-04-20T20:33:01.286Z,36.48
2019-04-20T20:35:17.487Z,36.20
2019-04-20T20:37:44.779Z,36.05
2019-04-20T20:40:15.817Z,37.71
2019-04-20T20:42:45.774Z,36.92
2019-04-20T20:45:09.310Z,37.24
2019-04-20T20:47:48.494Z,36.69
2019-04-20T20:50:17.387Z,39.09
2019-04-20T20:52:32.466Z,36.80
2019-04-20T20:54:54.100Z,38.63
2019-04-20T20:57:18.888Z,36.29
2019-04-20T20:59:51.383Z,35.76
2019-04-20T21:02:14.575Z,39.20
2019-04-20T21:04:33.476Z,39.91
2019-04-20T21:07:00.625Z,41.50
2019-04-20T21:09:27.197Z,41.29
2019-04-20T21:12:01.787Z,41.65
2019-04-20T21:14:26.077Z,42.49
2019-04-20T21:16:57.519Z,42.25
2019-04-20T21:19:27.274Z,42.20
2019-04-20T21:21:49.424Z,42.47
2019-04-20T21:24:17.799Z,42.88
2019-04-20T21:26:44.100Z,41.91
2019-04-20T21:29:10.020Z,41.95
2019-04-20T21:31:36.621Z,43.62
2019-04-20T21:34:07.738Z,42.92
2019-04-20T21:36:31.369Z,42.01
2019-04-20T21:38:55.924Z,43.12
2019-04-20T21:41:25.318Z,43.34
2019-04-20T21:43:49.850Z,43.45
2019-04-20T21:46:16.584Z,43.80
2019-04-20T21:48:58.827Z,43.67
2019-04-20T21:51:25.753Z,44.09
2019-04-20T21:53:37.811Z,43.86
2019-04-20T21:56:03.900Z,44.18
2019-04-20T21:58:35.443Z,44.43
2019-04-20T22:01:10.920Z,44.19
2019-04-20T22:03:24.751Z,44.44
2019-04-20T22:05:52.502Z,44.39
2019-04-20T22:08:19.743Z,43.34
2019-04-20T22:10:46.971Z,43.98
2019-04-20T22:13:12.285Z,45.23
2019-04-20T22:15:46.581Z,44.92
2019-04-20T22:18:10.943Z,45.09
2019-04-20T22:20:46.811Z,46.32
2019-04-20T22:23:13.315Z,46.18
2019-04-20T22:25:43.773Z,47.07
2019-04-20T22:27:55.666Z,47.35
2019-04-20T22:30:19.930Z,45.56
2019-04-20T22:32:48.590Z,45.43
2019-04-20T22:35:15.670Z,47.42
2019-04-20T22:37:52.074Z,50.59
2019-04-20T22:40:20.492Z,52.02
2019-04-20T22:42:49.487Z,50.16
2019-04-20T22:45:14.205Z,50.83
2019-04-20T22:47:39.150Z,49.96
2019-04-20T22:50:20.281Z,50.55
2019-04-20T22:52:47.743Z,50.20
2019-04-20T22:55:19.873Z,50.86
2019-04-20T22:57:50.460Z,49.70
2019-04-20T22:59:59.672Z,49.87
2019-04-20T23:02:22.568Z,49.66
2019-04-20T23:04:46.715Z,48.79
2019-04-20T23:07:12.807Z,50.06
2019-04-20T23:09:46.846Z,51.64
2019-04-20T23:12:10.023Z,50.23
2019-04-20T23:14:34.209Z,50.94
2019-04-20T23:16:59.802Z,50.62
2019-04-20T23:19:34.292Z,51.06
2019-04-20T23:21:58.971Z,48.58
2019-04-20T23:24:20.529Z,50.16
2019-04-20T23:26:47.626Z,49.49
2019-04-20T23:29:13.439Z,51.30
2019-04-20T23:31:46.044Z,51.54
2019-04-20T23:34:12.496Z,51.10
2019-04-20T23:36:39.047Z,52.46
2019-04-20T23:39:03.013Z,52.41
2019-04-20T23:41:28.014Z,52.08
2019-04-20T23:44:04.919Z,52.96
2019-04-20T23:46:31.532Z,53.38
2019-04-20T23:49:06.584Z,52.63
2019-04-20T23:51:49.888Z,51.43
2019-04-20T23:54:08.286Z,51.61
2019-04-20T23:56:24.199Z,52.06
2019-04-20T23:58:53.446Z,53.18
